createdAt,value
2019-05-10T00:00:03.150Z,70.01
2019-05-10T00:01:03.157Z,69.91
2019-05-10T00:02:03.133Z,69.91
2019-05-10T00:03:03.173Z,69.81
2019-05-10T00:04:03.114Z,70.11
2019-05-10T00:05:03.095Z,69.74
2019-05-10T00:06:03.081Z,69.34
2019-05-10T00:07:03.130Z,68.70
2019-05-10T00:08:03.064Z,68.22
2019-05-10T00:09:03.047Z,68.70
2019-05-10T00:10:03.033Z,68.29
2019-05-10T00:11:03.020Z,68.79
2019-05-10T00:12:03.084Z,67.88
2019-05-10T00:13:03.019Z,67.88
2019-05-10T00:14:03.013Z,68.19
2019-05-10T00:15:02.979Z,68.90
2019-05-10T00:16:02.971Z,67.78
2019-05-10T00:17:02.959Z,67.88
2019-05-10T00:18:02.945Z,67.98
2019-05-10T00:19:02.944Z,68.39
2019-05-10T00:20:02.927Z,68.70
2019-05-10T00:21:02.914Z,68.19
2019-05-10T00:22:02.901Z,68.59
2019-05-10T00:23:02.893Z,68.19
2019-05-10T00:24:02.899Z,68.39
2019-05-10T00:25:04.959Z,67.68
2019-05-10T00:26:02.857Z,67.58
2019-05-10T00:27:02.852Z,68.70
2019-05-10T00:28:02.836Z,68.29
2019-05-10T00:29:02.866Z,68.08
2019-05-10T00:30:02.820Z,68.08
2019-05-10T00:31:02.808Z,68.79
2019-05-10T00:32:02.793Z,68.22
2019-05-10T00:33:02.862Z,68.49
2019-05-10T00:34:02.795Z,67.98
2019-05-10T00:35:02.763Z,68.32
2019-05-10T00:36:02.753Z,68.19
2019-05-10T00:37:02.744Z,67.58
2019-05-10T00:38:02.728Z,67.38
2019-05-10T00:39:02.746Z,67.47
2019-05-10T00:40:02.711Z,67.68
2019-05-10T00:41:02.706Z,67.38
2019-05-10T00:42:02.692Z,66.86
2019-05-10T00:43:02.678Z,67.17
2019-05-10T00:44:02.676Z,68.70
2019-05-10T00:45:02.681Z,68.79
2019-05-10T00:46:02.659Z,69.40
2019-05-10T00:47:02.660Z,70.21
2019-05-10T00:48:02.622Z,69.10
2019-05-10T00:49:02.611Z,69.40
2019-05-10T00:50:02.614Z,68.59
2019-05-10T00:51:02.596Z,67.88
2019-05-10T00:52:02.579Z,68.70
2019-05-10T00:53:02.569Z,68.29
2019-05-10T00:54:02.558Z,68.29
2019-05-10T00:55:16.702Z,68.08
2019-05-10T00:56:03.535Z,68.70
2019-05-10T00:57:02.528Z,67.17
2019-05-10T00:58:02.517Z,67.27
2019-05-10T00:59:02.505Z,67.07
2019-05-10T01:00:02.508Z,67.78
2019-05-10T01:01:02.532Z,68.08
2019-05-10T01:02:02.486Z,67.47
2019-05-10T01:03:02.463Z,66.97
2019-05-10T01:04:02.480Z,67.38
2019-05-10T01:05:02.458Z,66.77
2019-05-10T01:06:02.472Z,66.97
2019-05-10T01:07:02.421Z,66.56
2019-05-10T01:08:02.407Z,66.16
2019-05-10T01:09:02.399Z,66.77
2019-05-10T01:10:02.406Z,65.65
2019-05-10T01:11:02.372Z,65.95
2019-05-10T01:12:02.361Z,65.95
2019-05-10T01:13:02.352Z,66.16
2019-05-10T01:14:02.343Z,66.02
2019-05-10T01:15:02.342Z,65.95
2019-05-10T01:16:02.315Z,66.97
2019-05-10T01:17:02.308Z,66.16
2019-05-10T01:18:02.359Z,66.05
2019-05-10T01:19:02.290Z,65.55
2019-05-10T01:20:02.297Z,63.82
2019-05-10T01:21:02.263Z,63.92
2019-05-10T01:22:02.252Z,64.73
2019-05-10T01:23:02.239Z,65.01
2019-05-10T01:24:02.261Z,65.34
2019-05-10T01:25:02.228Z,65.65
2019-05-10T01:26:02.214Z,66.77
2019-05-10T01:27:02.196Z,65.82
2019-05-10T01:28:02.191Z,66.43
2019-05-10T01:29:02.175Z,67.14
2019-05-10T01:30:02.239Z,66.94
2019-05-10T01:31:02.158Z,66.94
2019-05-10T01:32:02.179Z,66.63
2019-05-10T01:33:02.132Z,67.34
2019-05-10T01:34:02.121Z,66.63
2019-05-10T01:35:02.125Z,65.92
2019-05-10T01:36:02.108Z,64.70
2019-05-10T01:37:02.089Z,64.50
2019-05-10T01:38:02.077Z,64.70
2019-05-10T01:39:02.069Z,64.00
2019-05-10T01:40:02.090Z,63.08
2019-05-10T01:41:02.044Z,62.27
2019-05-10T01:42:02.037Z,62.78
2019-05-10T01:43:02.023Z,63.18
2019-05-10T01:44:02.022Z,63.01
2019-05-10T01:45:02.053Z,63.08
2019-05-10T01:46:01.994Z,62.71
2019-05-10T01:47:01.982Z,62.88
2019-05-10T01:48:01.970Z,62.98
2019-05-10T01:49:01.957Z,62.27
2019-05-10T01:50:01.946Z,62.17
2019-05-10T01:51:02.194Z,62.37
2019-05-10T01:52:01.931Z,62.51
2019-05-10T01:53:01.918Z,62.48
2019-05-10T01:54:01.905Z,62.27
2019-05-10T01:55:01.899Z,62.68
2019-05-10T01:56:01.919Z,62.17
2019-05-10T01:57:01.916Z,62.57
2019-05-10T01:58:01.873Z,62.68
2019-05-10T01:59:01.866Z,62.48
2019-05-10T02:00:01.851Z,62.27
2019-05-10T02:01:01.899Z,62.98
2019-05-10T02:02:01.826Z,62.98
2019-05-10T02:03:01.826Z,63.49
2019-05-10T02:04:01.806Z,63.59
2019-05-10T02:05:01.808Z,63.39
2019-05-10T02:06:01.803Z,63.49
2019-05-10T02:07:01.769Z,64.30
2019-05-10T02:08:01.772Z,64.00
2019-05-10T02:09:01.750Z,64.50
2019-05-10T02:10:01.740Z,64.73
2019-05-10T02:11:01.746Z,64.94
2019-05-10T02:12:01.730Z,64.61
2019-05-10T02:13:01.703Z,64.70
2019-05-10T02:14:01.694Z,64.43
2019-05-10T02:15:01.694Z,64.70
2019-05-10T02:16:01.683Z,64.81
2019-05-10T02:17:01.663Z,64.81
2019-05-10T02:18:01.651Z,65.85
2019-05-10T02:19:01.641Z,66.02
2019-05-10T02:20:01.632Z,66.23
2019-05-10T02:21:01.635Z,65.42
2019-05-10T02:22:01.610Z,66.16
2019-05-10T02:23:01.604Z,66.97
2019-05-10T02:24:01.595Z,66.53
2019-05-10T02:25:01.583Z,66.94
2019-05-10T02:26:09.455Z,66.33
2019-05-10T02:27:02.557Z,67.68
2019-05-10T02:28:01.541Z,66.56
2019-05-10T02:29:01.533Z,67.07
2019-05-10T02:30:01.533Z,66.66
2019-05-10T02:31:01.529Z,66.36
2019-05-10T02:32:01.502Z,67.44
2019-05-10T02:33:01.497Z,67.27
2019-05-10T02:34:01.480Z,67.68
2019-05-10T02:35:01.472Z,67.07
2019-05-10T02:36:01.474Z,67.88
2019-05-10T02:37:01.453Z,68.19
2019-05-10T02:38:01.444Z,68.70
2019-05-10T02:39:01.425Z,68.08
2019-05-10T02:40:01.432Z,67.38
2019-05-10T02:41:01.440Z,67.07
2019-05-10T02:42:01.395Z,67.17
2019-05-10T02:43:01.385Z,66.97
2019-05-10T02:44:01.391Z,67.17
2019-05-10T02:45:01.360Z,67.47
2019-05-10T02:46:01.375Z,67.38
2019-05-10T02:47:01.353Z,67.07
2019-05-10T02:48:01.334Z,67.27
2019-05-10T02:49:01.337Z,67.27
2019-05-10T02:50:01.313Z,67.38
2019-05-10T02:51:01.306Z,67.17
2019-05-10T02:52:01.307Z,67.38
2019-05-10T02:53:01.309Z,67.78
2019-05-10T02:54:01.263Z,67.58
2019-05-10T02:55:01.275Z,68.70
2019-05-10T02:56:01.263Z,68.32
2019-05-10T02:57:01.230Z,67.38
2019-05-10T02:58:01.259Z,68.01
2019-05-10T02:59:01.213Z,68.29
2019-05-10T03:00:01.221Z,68.29
2019-05-10T03:01:01.239Z,68.59
2019-05-10T03:02:01.175Z,69.03
2019-05-10T03:03:01.173Z,68.70
2019-05-10T03:04:01.158Z,68.83
2019-05-10T03:05:01.143Z,68.73
2019-05-10T03:06:01.135Z,68.73
2019-05-10T03:07:01.136Z,68.32
2019-05-10T03:08:01.121Z,68.52
2019-05-10T03:09:01.102Z,67.81
2019-05-10T03:10:01.098Z,68.12
2019-05-10T03:11:01.078Z,68.83
2019-05-10T03:12:01.080Z,67.81
2019-05-10T03:13:01.060Z,69.03
2019-05-10T03:14:01.055Z,68.73
2019-05-10T03:15:01.094Z,68.62
2019-05-10T03:16:01.025Z,68.42
2019-05-10T03:17:01.030Z,68.62
2019-05-10T03:18:01.002Z,67.07
2019-05-10T03:19:00.987Z,67.91
2019-05-10T03:20:00.980Z,68.52
2019-05-10T03:21:00.973Z,68.83
2019-05-10T03:22:00.965Z,68.29
2019-05-10T03:23:00.944Z,67.41
2019-05-10T03:24:00.934Z,67.98
2019-05-10T03:25:00.921Z,68.59
2019-05-10T03:26:00.914Z,69.20
2019-05-10T03:27:00.913Z,69.30
2019-05-10T03:28:00.893Z,68.70
2019-05-10T03:29:00.893Z,69.51
2019-05-10T03:30:00.870Z,68.73
2019-05-10T03:31:00.862Z,68.59
2019-05-10T03:32:00.878Z,68.83
2019-05-10T03:33:00.841Z,68.90
2019-05-10T03:34:00.875Z,68.39
2019-05-10T03:35:00.839Z,68.59
2019-05-10T03:36:00.804Z,68.49
2019-05-10T03:37:00.830Z,68.90
2019-05-10T03:38:00.796Z,68.70
2019-05-10T03:39:00.772Z,68.93
2019-05-10T03:40:00.766Z,68.90
2019-05-10T03:41:00.752Z,68.79
2019-05-10T03:42:00.755Z,68.70
2019-05-10T03:43:00.736Z,68.49
2019-05-10T03:44:00.743Z,68.08
2019-05-10T03:45:00.822Z,69.03
2019-05-10T03:46:00.703Z,69.23
2019-05-10T03:47:00.714Z,68.73
2019-05-10T03:48:00.687Z,68.83
2019-05-10T03:49:00.671Z,67.91
2019-05-10T03:50:00.655Z,68.52
2019-05-10T03:51:00.644Z,69.13
2019-05-10T03:52:00.655Z,69.34
2019-05-10T03:53:00.622Z,68.90
2019-05-10T03:54:00.613Z,68.73
2019-05-10T03:55:00.600Z,68.12
2019-05-10T03:56:00.614Z,69.23
2019-05-10T03:57:13.387Z,68.73
2019-05-10T03:58:01.573Z,68.73
2019-05-10T03:59:00.563Z,69.23
2019-05-10T04:00:00.574Z,68.93
2019-05-10T04:01:00.555Z,69.54
2019-05-10T04:02:00.548Z,69.34
2019-05-10T04:03:00.526Z,69.13
2019-05-10T04:04:00.512Z,69.98
2019-05-10T04:05:00.498Z,68.73
2019-05-10T04:06:00.496Z,69.47
2019-05-10T04:07:00.492Z,69.43
2019-05-10T04:08:00.481Z,68.93
2019-05-10T04:09:00.459Z,70.15
2019-05-10T04:10:00.446Z,69.87
2019-05-10T04:11:00.436Z,70.38
2019-05-10T04:12:00.428Z,70.28
2019-05-10T04:13:00.425Z,70.99
2019-05-10T04:14:00.399Z,70.59
2019-05-10T04:15:00.393Z,70.59
2019-05-10T04:16:00.377Z,70.59
2019-05-10T04:17:00.366Z,70.48
2019-05-10T04:18:00.364Z,70.99
2019-05-10T04:19:00.347Z,70.89
2019-05-10T04:20:00.333Z,70.59
2019-05-10T04:21:00.329Z,70.59
2019-05-10T04:22:00.333Z,71.09
2019-05-10T04:23:00.312Z,71.09
2019-05-10T04:24:00.292Z,70.89
2019-05-10T04:25:00.280Z,70.68
2019-05-10T04:26:00.277Z,71.30
2019-05-10T04:27:00.280Z,71.30
2019-05-10T04:28:00.264Z,70.89
2019-05-10T04:29:00.242Z,70.99
2019-05-10T04:30:00.227Z,70.38
2019-05-10T04:31:00.227Z,70.79
2019-05-10T04:32:00.210Z,70.48
2019-05-10T04:33:00.247Z,70.89
2019-05-10T04:34:00.196Z,71.09
2019-05-10T04:35:00.183Z,70.48
2019-05-10T04:36:00.177Z,70.89
2019-05-10T04:37:00.177Z,70.99
2019-05-10T04:38:00.153Z,70.59
2019-05-10T04:39:00.135Z,70.59
2019-05-10T04:40:00.138Z,71.20
2019-05-10T04:41:00.137Z,70.89
2019-05-10T04:42:00.104Z,70.79
2019-05-10T04:43:00.101Z,71.09
2019-05-10T04:44:00.085Z,70.99
2019-05-10T04:45:00.096Z,71.20
2019-05-10T04:46:00.056Z,70.59
2019-05-10T04:47:00.053Z,70.48
2019-05-10T04:48:00.056Z,69.87
2019-05-10T04:49:00.023Z,71.09
2019-05-10T04:50:00.019Z,70.59
2019-05-10T04:51:00.008Z,70.79
2019-05-10T04:51:59.992Z,70.38
2019-05-10T04:52:59.998Z,70.68
2019-05-10T04:53:59.986Z,70.48
2019-05-10T04:54:59.960Z,70.99
2019-05-10T04:55:59.948Z,70.79
2019-05-10T04:57:00.276Z,70.99
2019-05-10T04:57:59.944Z,70.68
2019-05-10T04:58:59.982Z,70.59
2019-05-10T04:59:59.969Z,70.38
2019-05-10T05:00:59.958Z,70.08
2019-05-10T05:01:59.891Z,70.89
2019-05-10T05:02:59.950Z,70.59
2019-05-10T05:03:59.868Z,70.18
2019-05-10T05:04:59.853Z,70.79
2019-05-10T05:05:59.845Z,69.87
2019-05-10T05:06:59.842Z,70.38
2019-05-10T05:07:59.834Z,70.18
2019-05-10T05:08:59.812Z,70.25
2019-05-10T05:09:59.804Z,69.78
2019-05-10T05:10:59.788Z,69.47
2019-05-10T05:11:59.800Z,69.64
2019-05-10T05:12:59.781Z,69.67
2019-05-10T05:14:00.012Z,69.78
2019-05-10T05:14:59.755Z,70.68
2019-05-10T05:15:59.749Z,70.35
2019-05-10T05:16:59.732Z,70.79
2019-05-10T05:17:59.726Z,70.48
2019-05-10T05:18:59.722Z,70.68
2019-05-10T05:19:59.702Z,70.25
2019-05-10T05:20:59.694Z,70.25
2019-05-10T05:21:59.692Z,70.65
2019-05-10T05:22:59.813Z,70.79
2019-05-10T05:23:59.691Z,69.43
2019-05-10T05:25:01.064Z,69.87
2019-05-10T05:25:59.636Z,70.38
2019-05-10T05:26:59.636Z,70.38
2019-05-10T05:28:07.804Z,70.65
2019-05-10T05:29:00.629Z,70.35
2019-05-10T05:29:59.587Z,70.35
2019-05-10T05:30:59.571Z,70.18
2019-05-10T05:32:01.263Z,70.65
2019-05-10T05:32:59.559Z,69.95
2019-05-10T05:34:04.800Z,70.15
2019-05-10T05:35:00.527Z,68.93
2019-05-10T05:36:02.134Z,69.23
2019-05-10T05:36:59.525Z,69.03
2019-05-10T05:37:59.513Z,69.03
2019-05-10T05:38:59.502Z,69.43
2019-05-10T05:39:59.472Z,69.95
2019-05-10T05:40:59.465Z,69.84
2019-05-10T05:41:59.453Z,68.73
2019-05-10T05:43:02.756Z,69.74
2019-05-10T05:44:00.439Z,69.30
2019-05-10T05:44:59.443Z,69.64
2019-05-10T05:45:59.411Z,68.70
2019-05-10T05:46:59.409Z,68.29
2019-05-10T05:47:59.389Z,68.59
2019-05-10T05:48:59.391Z,69.30
2019-05-10T05:49:59.368Z,69.30
2019-05-10T05:50:59.362Z,69.30
2019-05-10T05:51:59.362Z,68.76
2019-05-10T05:52:59.352Z,68.49
2019-05-10T05:53:59.365Z,67.85
2019-05-10T05:54:59.381Z,67.82
2019-05-10T05:56:03.732Z,67.31
2019-05-10T05:57:00.314Z,67.48
2019-05-10T05:58:04.534Z,66.97
2019-05-10T05:59:00.372Z,66.44
2019-05-10T06:00:03.881Z,66.33
2019-05-10T06:01:00.259Z,66.94
2019-05-10T06:02:00.594Z,66.64
2019-05-10T06:03:00.276Z,66.61
2019-05-10T06:04:00.198Z,67.25
2019-05-10T06:05:00.226Z,66.64
2019-05-10T06:05:59.199Z,66.44
2019-05-10T06:07:00.453Z,66.74
2019-05-10T06:07:59.214Z,66.84
2019-05-10T06:09:00.089Z,66.54
2019-05-10T06:09:59.157Z,66.74
2019-05-10T06:11:00.096Z,66.57
2019-05-10T06:11:59.130Z,66.33
2019-05-10T06:12:59.118Z,66.03
2019-05-10T06:14:03.616Z,66.33
2019-05-10T06:15:00.098Z,66.24
2019-05-10T06:16:00.342Z,66.13
2019-05-10T06:16:59.093Z,66.13
2019-05-10T06:18:03.601Z,66.64
2019-05-10T06:19:00.091Z,66.84
2019-05-10T06:20:00.816Z,66.77
2019-05-10T06:21:00.041Z,66.77
2019-05-10T06:22:04.477Z,66.67
2019-05-10T06:23:06.617Z,66.57
2019-05-10T06:24:00.050Z,67.48
2019-05-10T06:24:58.994Z,66.88
2019-05-10T06:25:58.983Z,66.67
2019-05-10T06:27:03.493Z,66.67
2019-05-10T06:27:59.983Z,67.08
2019-05-10T06:29:03.723Z,66.88
2019-05-10T06:29:59.942Z,66.37
2019-05-10T06:30:58.924Z,66.97
2019-05-10T06:31:59.128Z,67.28
2019-05-10T06:33:00.820Z,67.28
2019-05-10T06:33:58.920Z,67.48
2019-05-10T06:34:58.882Z,66.37
2019-05-10T06:35:58.871Z,66.97
2019-05-10T06:36:58.858Z,67.18
2019-05-10T06:37:58.859Z,67.08
2019-05-10T06:38:58.841Z,66.37
2019-05-10T06:39:58.846Z,67.18
2019-05-10T06:40:58.816Z,67.18
2019-05-10T06:41:58.808Z,67.38
2019-05-10T06:42:58.793Z,66.84
2019-05-10T06:43:58.789Z,67.38
2019-05-10T06:45:04.977Z,66.33
2019-05-10T06:45:59.834Z,66.64
2019-05-10T06:47:02.055Z,67.25
2019-05-10T06:47:59.742Z,66.64
2019-05-10T06:49:07.263Z,67.35
2019-05-10T06:49:59.733Z,67.25
2019-05-10T06:51:03.009Z,67.35
2019-05-10T06:51:59.701Z,67.25
2019-05-10T06:53:00.718Z,66.64
2019-05-10T06:53:59.674Z,67.55
2019-05-10T06:54:58.923Z,67.42
2019-05-10T06:55:58.682Z,66.00
2019-05-10T06:56:58.643Z,66.30
2019-05-10T06:58:00.692Z,66.71
2019-05-10T06:59:12.338Z,66.81
2019-05-10T07:00:05.966Z,66.81
2019-05-10T07:00:59.605Z,66.71
2019-05-10T07:01:58.590Z,66.61
2019-05-10T07:02:58.589Z,66.61
2019-05-10T07:03:58.570Z,65.97
2019-05-10T07:04:58.597Z,65.43
2019-05-10T07:05:58.550Z,64.42
2019-05-10T07:06:58.568Z,65.64
2019-05-10T07:08:13.833Z,65.97
2019-05-10T07:08:59.596Z,65.87
2019-05-10T07:10:08.334Z,66.07
2019-05-10T07:10:59.490Z,65.87
2019-05-10T07:11:58.484Z,65.64
2019-05-10T07:13:03.596Z,65.36
2019-05-10T07:13:59.470Z,65.36
2019-05-10T07:15:03.478Z,65.87
2019-05-10T07:15:59.451Z,65.87
2019-05-10T07:17:02.820Z,65.97
2019-05-10T07:17:59.424Z,65.87
2019-05-10T07:19:00.487Z,66.47
2019-05-10T07:19:58.417Z,66.17
2019-05-10T07:21:00.950Z,66.38
2019-05-10T07:21:59.372Z,65.97
2019-05-10T07:23:00.033Z,66.35
2019-05-10T07:23:59.365Z,66.17
2019-05-10T07:25:04.535Z,65.94
2019-05-10T07:25:59.336Z,66.44
2019-05-10T07:27:02.102Z,66.55
2019-05-10T07:27:58.310Z,65.87
2019-05-10T07:28:59.410Z,66.58
2019-05-10T07:29:58.297Z,66.58
2019-05-10T07:30:58.287Z,65.97
2019-05-10T07:31:58.266Z,66.07
2019-05-10T07:32:59.707Z,66.17
2019-05-10T07:33:58.248Z,66.07
2019-05-10T07:35:00.776Z,66.17
2019-05-10T07:35:58.224Z,66.67
2019-05-10T07:37:01.570Z,67.29
2019-05-10T07:37:58.233Z,67.08
2019-05-10T07:39:02.718Z,66.47
2019-05-10T07:39:59.188Z,67.29
2019-05-10T07:40:58.173Z,67.29
2019-05-10T07:42:00.264Z,66.78
2019-05-10T07:42:59.147Z,66.47
2019-05-10T07:44:00.614Z,66.78
2019-05-10T07:44:59.169Z,66.47
2019-05-10T07:46:06.171Z,66.78
2019-05-10T07:46:59.107Z,66.78
2019-05-10T07:48:02.364Z,66.44
2019-05-10T07:48:59.080Z,66.44
2019-05-10T07:49:58.110Z,66.58
2019-05-10T07:50:58.071Z,66.27
2019-05-10T07:52:02.081Z,66.44
2019-05-10T07:52:58.038Z,66.55
2019-05-10T07:54:04.806Z,66.04
2019-05-10T07:54:59.018Z,66.35
2019-05-10T07:55:59.838Z,66.75
2019-05-10T07:56:58.995Z,66.55
2019-05-10T07:57:59.202Z,66.14
2019-05-10T07:59:00.749Z,65.91
2019-05-10T08:00:03.493Z,65.40
2019-05-10T08:00:59.000Z,65.67
2019-05-10T08:01:58.010Z,65.17
2019-05-10T08:03:12.414Z,64.53
2019-05-10T08:03:59.229Z,64.73
2019-05-10T08:04:58.481Z,64.03
2019-05-10T08:06:01.787Z,64.13
2019-05-10T08:06:59.676Z,64.70
2019-05-10T08:07:58.868Z,64.50
2019-05-10T08:09:01.995Z,63.46
2019-05-10T08:09:59.424Z,63.06
2019-05-10T08:10:59.348Z,63.16
2019-05-10T08:12:03.187Z,62.85
2019-05-10T08:13:01.363Z,62.63
2019-05-10T08:14:06.115Z,62.52
2019-05-10T08:14:59.062Z,61.41
2019-05-10T08:15:59.423Z,61.79
2019-05-10T08:17:01.927Z,61.79
2019-05-10T08:17:58.768Z,61.79
2019-05-10T08:19:00.918Z,61.72
2019-05-10T08:19:57.748Z,61.66
2019-05-10T08:21:02.249Z,60.85
2019-05-10T08:22:01.806Z,61.86
2019-05-10T08:22:58.712Z,61.25
2019-05-10T08:23:59.040Z,61.05
2019-05-10T08:24:58.695Z,61.16
2019-05-10T08:25:57.734Z,61.05
2019-05-10T08:27:09.765Z,60.12
2019-05-10T08:27:58.665Z,60.35
2019-05-10T08:28:57.659Z,60.22
2019-05-10T08:30:17.808Z,60.02
2019-05-10T08:30:59.115Z,60.02
2019-05-10T08:31:57.618Z,60.19
2019-05-10T08:33:00.197Z,60.39
2019-05-10T08:33:59.248Z,59.48
2019-05-10T08:34:57.599Z,58.38
2019-05-10T08:36:00.451Z,59.69
2019-05-10T08:36:58.563Z,59.08
2019-05-10T08:37:57.557Z,59.28
2019-05-10T08:39:07.056Z,58.68
2019-05-10T08:39:58.535Z,59.28
2019-05-10T08:40:57.532Z,58.78
2019-05-10T08:42:08.834Z,58.78
2019-05-10T08:43:04.882Z,58.68
2019-05-10T08:43:58.490Z,58.98
2019-05-10T08:45:03.777Z,58.58
2019-05-10T08:45:58.491Z,58.78
2019-05-10T08:46:57.464Z,58.88
2019-05-10T08:48:00.655Z,59.11
2019-05-10T08:48:58.459Z,58.58
2019-05-10T08:50:10.537Z,58.48
2019-05-10T08:51:04.087Z,58.68
2019-05-10T08:51:58.423Z,58.98
2019-05-10T08:53:04.357Z,58.38
2019-05-10T08:53:58.527Z,58.65
2019-05-10T08:54:57.372Z,58.15
2019-05-10T08:55:58.994Z,57.92
2019-05-10T08:57:01.321Z,58.15
2019-05-10T08:57:58.336Z,56.84
2019-05-10T08:58:57.327Z,57.75
2019-05-10T09:00:06.607Z,57.24
2019-05-10T09:01:15.498Z,56.95
2019-05-10T09:01:58.299Z,56.71
2019-05-10T09:03:02.970Z,56.71
2019-05-10T09:04:00.778Z,57.42
2019-05-10T09:04:58.258Z,56.51
2019-05-10T09:05:57.247Z,56.31
2019-05-10T09:06:59.888Z,56.31
2019-05-10T09:07:57.233Z,56.31
2019-05-10T09:09:01.685Z,57.02
2019-05-10T09:09:58.226Z,56.54
2019-05-10T09:10:57.193Z,56.14
2019-05-10T09:11:57.673Z,55.63
2019-05-10T09:12:58.422Z,56.04
2019-05-10T09:13:57.837Z,56.24
2019-05-10T09:15:05.494Z,56.37
2019-05-10T09:15:58.165Z,56.27
2019-05-10T09:17:03.489Z,56.97
2019-05-10T09:18:02.849Z,56.97
2019-05-10T09:18:58.104Z,56.47
2019-05-10T09:19:57.099Z,55.66
2019-05-10T09:21:02.609Z,56.54
2019-05-10T09:21:58.086Z,56.84
2019-05-10T09:22:57.109Z,56.01
2019-05-10T09:24:01.347Z,56.41
2019-05-10T09:24:58.041Z,55.41
2019-05-10T09:26:03.744Z,55.08
2019-05-10T09:26:58.053Z,55.38
2019-05-10T09:28:02.357Z,55.18
2019-05-10T09:28:58.003Z,55.08
2019-05-10T09:29:56.988Z,55.08
2019-05-10T09:31:01.222Z,55.11
2019-05-10T09:32:01.033Z,55.11
2019-05-10T09:33:00.988Z,55.41
2019-05-10T09:33:57.946Z,55.51
2019-05-10T09:34:59.742Z,56.62
2019-05-10T09:35:59.313Z,55.31
2019-05-10T09:36:56.927Z,54.60
2019-05-10T09:37:58.525Z,55.11
2019-05-10T09:38:56.900Z,55.11
2019-05-10T09:40:05.415Z,54.60
2019-05-10T09:40:57.873Z,53.90
2019-05-10T09:41:56.877Z,53.90
2019-05-10T09:42:59.410Z,53.12
2019-05-10T09:43:57.858Z,54.33
2019-05-10T09:44:56.863Z,54.73
2019-05-10T09:45:56.860Z,55.13
2019-05-10T09:46:56.819Z,54.73
2019-05-10T09:47:56.795Z,54.63
2019-05-10T09:49:06.141Z,55.36
2019-05-10T09:49:58.956Z,55.96
2019-05-10T09:51:00.642Z,55.16
2019-05-10T09:51:57.778Z,55.26
2019-05-10T09:52:56.748Z,56.09
2019-05-10T09:53:57.914Z,56.09
2019-05-10T09:54:57.113Z,56.49
2019-05-10T09:56:02.558Z,56.60
2019-05-10T09:56:57.775Z,56.82
2019-05-10T09:57:58.313Z,56.62
2019-05-10T09:58:58.185Z,56.52
2019-05-10T09:59:57.217Z,56.62
2019-05-10T10:01:12.826Z,56.62
2019-05-10T10:01:57.646Z,56.52
2019-05-10T10:03:01.176Z,57.43
2019-05-10T10:03:58.433Z,57.15
2019-05-10T10:04:58.841Z,57.45
2019-05-10T10:06:05.152Z,57.15
2019-05-10T10:06:58.128Z,56.85
2019-05-10T10:07:57.840Z,57.05
2019-05-10T10:08:57.730Z,57.45
2019-05-10T10:09:57.120Z,57.96
2019-05-10T10:11:01.095Z,58.47
2019-05-10T10:12:01.052Z,58.87
2019-05-10T10:13:07.321Z,59.88
2019-05-10T10:14:00.015Z,59.97
2019-05-10T10:14:56.516Z,60.28
2019-05-10T10:15:58.140Z,60.28
2019-05-10T10:17:00.554Z,60.28
2019-05-10T10:17:58.298Z,60.41
2019-05-10T10:18:56.476Z,60.61
2019-05-10T10:19:57.857Z,60.51
2019-05-10T10:20:56.448Z,61.01
2019-05-10T10:21:57.608Z,60.91
2019-05-10T10:22:56.455Z,60.98
2019-05-10T10:24:00.037Z,61.01
2019-05-10T10:25:00.465Z,61.41
2019-05-10T10:25:58.006Z,60.88
2019-05-10T10:26:58.132Z,60.58
2019-05-10T10:27:57.412Z,60.48
2019-05-10T10:28:59.515Z,60.28
2019-05-10T10:29:57.354Z,59.77
2019-05-10T10:31:03.034Z,59.34
2019-05-10T10:31:58.948Z,59.24
2019-05-10T10:32:58.119Z,59.31
2019-05-10T10:33:59.499Z,59.22
2019-05-10T10:34:57.760Z,58.78
2019-05-10T10:36:04.812Z,57.65
2019-05-10T10:36:58.041Z,57.65
2019-05-10T10:37:57.541Z,57.85
2019-05-10T10:38:57.252Z,56.62
2019-05-10T10:40:00.737Z,56.41
2019-05-10T10:40:57.704Z,56.31
2019-05-10T10:41:57.109Z,54.68
2019-05-10T10:42:57.732Z,54.48
2019-05-10T10:43:58.376Z,54.58
2019-05-10T10:44:56.183Z,55.18
2019-05-10T10:45:57.459Z,54.78
2019-05-10T10:46:58.226Z,53.14
2019-05-10T10:47:57.313Z,53.34
2019-05-10T10:48:56.144Z,52.74
2019-05-10T10:49:57.884Z,52.94
2019-05-10T10:50:58.519Z,53.05
2019-05-10T10:51:57.360Z,52.47
2019-05-10T10:52:57.470Z,52.55
2019-05-10T10:53:58.107Z,52.87
2019-05-10T10:54:57.648Z,52.47
2019-05-10T10:56:02.467Z,50.93
2019-05-10T10:56:59.437Z,50.84
2019-05-10T10:57:57.661Z,50.56
2019-05-10T10:58:58.071Z,49.25
2019-05-10T10:59:57.453Z,48.55
2019-05-10T11:00:56.045Z,48.75
2019-05-10T11:02:25.376Z,49.13
2019-05-10T11:02:56.996Z,49.63
2019-05-10T11:03:55.990Z,49.30
2019-05-10T11:04:55.974Z,50.41
2019-05-10T11:05:55.971Z,50.23
2019-05-10T11:07:09.197Z,51.54
2019-05-10T11:07:56.940Z,51.54
2019-05-10T11:08:55.940Z,52.06
2019-05-10T11:10:12.266Z,52.57
2019-05-10T11:10:56.907Z,52.87
2019-05-10T11:11:55.903Z,53.00
2019-05-10T11:12:56.264Z,53.30
2019-05-10T11:14:00.433Z,53.70
2019-05-10T11:14:56.861Z,53.90
2019-05-10T11:15:58.959Z,54.40
2019-05-10T11:16:57.325Z,54.00
2019-05-10T11:17:55.845Z,53.60
2019-05-10T11:18:55.852Z,53.30
2019-05-10T11:19:55.809Z,52.80
2019-05-10T11:20:55.795Z,52.59
2019-05-10T11:21:55.788Z,52.80
2019-05-10T11:22:55.776Z,53.32
2019-05-10T11:23:55.781Z,52.69
2019-05-10T11:25:00.698Z,52.62
2019-05-10T11:25:56.832Z,52.51
2019-05-10T11:26:55.732Z,52.62
2019-05-10T11:27:58.576Z,52.22
2019-05-10T11:28:56.728Z,51.71
2019-05-10T11:29:55.728Z,52.24
2019-05-10T11:30:55.687Z,52.82
2019-05-10T11:32:12.153Z,52.94
2019-05-10T11:32:56.667Z,52.94
2019-05-10T11:33:58.429Z,52.44
2019-05-10T11:34:56.683Z,52.74
2019-05-10T11:35:57.547Z,52.64
2019-05-10T11:36:56.630Z,52.44
2019-05-10T11:37:55.617Z,53.34
2019-05-10T11:38:58.587Z,53.34
2019-05-10T11:39:55.615Z,52.54
2019-05-10T11:40:55.592Z,52.34
2019-05-10T11:42:02.035Z,51.43
2019-05-10T11:42:56.562Z,50.93
2019-05-10T11:43:57.994Z,51.64
2019-05-10T11:44:56.553Z,51.64
2019-05-10T11:45:55.526Z,51.43
2019-05-10T11:46:55.520Z,51.91
2019-05-10T11:47:59.080Z,51.59
2019-05-10T11:48:56.496Z,50.40
2019-05-10T11:49:55.492Z,49.18
2019-05-10T11:50:55.471Z,50.08
2019-05-10T11:51:58.681Z,49.57
2019-05-10T11:52:55.450Z,49.57
2019-05-10T11:53:59.658Z,49.65
2019-05-10T11:54:55.437Z,49.45
2019-05-10T11:55:55.416Z,49.33
2019-05-10T11:56:58.468Z,48.40
2019-05-10T11:58:03.295Z,48.00
2019-05-10T11:58:56.380Z,48.30
2019-05-10T11:59:55.379Z,48.22
2019-05-10T12:00:59.309Z,48.72
2019-05-10T12:01:59.400Z,48.00
2019-05-10T12:03:07.413Z,46.57
2019-05-10T12:03:56.327Z,45.77
2019-05-10T12:04:55.328Z,45.87
2019-05-10T12:06:04.296Z,46.69
2019-05-10T12:06:56.294Z,46.39
2019-05-10T12:07:55.287Z,47.19
2019-05-10T12:09:01.214Z,47.80
2019-05-10T12:10:07.532Z,48.20
2019-05-10T12:11:07.496Z,48.20
2019-05-10T12:11:57.046Z,47.82
2019-05-10T12:13:10.929Z,48.30
2019-05-10T12:13:57.560Z,48.90
2019-05-10T12:14:55.218Z,48.43
2019-05-10T12:15:55.202Z,48.63
2019-05-10T12:16:55.190Z,48.52
2019-05-10T12:17:59.603Z,49.53
2019-05-10T12:19:15.089Z,48.52
2019-05-10T12:19:56.644Z,48.02
2019-05-10T12:21:56.422Z,48.65
2019-05-10T12:22:55.125Z,48.05
2019-05-10T12:23:56.651Z,48.75
2019-05-10T12:25:18.701Z,49.18
2019-05-10T12:26:27.898Z,48.35
2019-05-10T12:27:09.332Z,48.27
2019-05-10T12:27:56.069Z,48.61
2019-05-10T12:29:02.682Z,49.55
2019-05-10T12:30:00.742Z,50.57
2019-05-10T12:30:56.036Z,50.68
2019-05-10T12:31:56.987Z,50.50
2019-05-10T12:32:57.235Z,51.71
2019-05-10T12:34:02.454Z,51.84
2019-05-10T12:34:56.714Z,52.04
2019-05-10T12:35:54.982Z,51.93
2019-05-10T12:36:57.441Z,52.44
2019-05-10T12:37:55.962Z,52.74
2019-05-10T12:38:56.264Z,52.34
2019-05-10T12:39:54.952Z,52.87
2019-05-10T12:40:54.956Z,50.24
2019-05-10T12:41:54.918Z,51.86
2019-05-10T12:42:54.911Z,51.45
2019-05-10T12:44:02.554Z,51.98
2019-05-10T12:44:56.124Z,52.59
2019-05-10T12:45:56.022Z,52.79
2019-05-10T12:46:54.885Z,52.72
2019-05-10T12:47:55.508Z,53.22
2019-05-10T12:48:54.850Z,53.85
2019-05-10T12:50:01.966Z,54.25
2019-05-10T12:50:59.491Z,55.16
2019-05-10T12:51:55.810Z,55.36
2019-05-10T12:53:03.287Z,54.25